Impacts TAF Board
For situational awareness. Not to be used for flight planning purposes.
IDs:

KMSP - Minneapolis-St Paul, MN, US

Issued at 1451 UTC 20 Nov 2018
Updated at 1615 UTC 20 Nov 2018
Potential Impact None Slight Moderate High
Time<<21/17Z 21/18Z 21/19Z 21/20Z 21/21Z 21/22Z 21/23Z 22/00Z 22/01Z 22/02Z 22/03Z 22/04Z 22/05Z
Type PRVL
VIS >6
CIG 50
Cover OVC
FltCat VFR
WX --
WDir 360
WSpd 5
WGst --
Raw TAF
KMSP 201451Z 2015/2118 21006KT P6SM SCT025 BKN110
  FM201530 21010G18KT P6SM BKN025 OVC060
  TEMPO 2017/2019 -SN
  FM210000 28006KT P6SM OVC030
  FM210500 32005KT P6SM SCT030 BKN050
  FM210900 36005KT P6SM BKN050 OVC100


METAR Board
Radar Display
Forecast Discussion
For situational awareness. Not to be used for flight planning purposes.